PWSweather.com
Personal Weather Stations
Station Observations
CRNINF
Briga AltaIT

Briga AltaIT

Lat: 44.1474858, Lon: 7.7359028

Elevation: 4542.8

Station Type: PCE-FWS20

Latest ConditionsUpdated 9:45:08 PM GMT+01:01 Wednesday, Apr 24, 2019
Currently Today's Max Today's Min Today's Average
Temperature 34.3°F1.3°C 43.9°F6.6°C 34.3°F1.3°C 41.4°F5.2°C
Dew Point 29.4°F-1.4°C 40.3°F4.6°C 28.0°F-2.2°C 35.9°F2.2°C
Winds 0.3 mph WNW0.5 kmh WNW 7.1 mph -11.4 kmh - - 2.8 mph 4.5 kmh
Wind Gusts 3.1 mph5.0 kmh 23.5 mph37.8 kmh - -
Humidity 82% 92% 59% 81%
Pressure 29.67 in1004.7 mb 29.67 in1004.7 mb 29.48 in998.3 mb -
Precipitation - 1.19 in30.2 mm - -
Hour Temp Dew Point Humidity Winds Wind Gusts Pressure Precip Precip Rate Daily Precip Total
09:45 PM 34.3°F1.3°C 29.4°F-1.4°C 82% 0.3 mph WNW0.5 kmh WNW 3.1 mph5.0 kmh 29.67 in1004.7 mb 0.00 in0.0 mm 0.00 in0.0 mm 1.19 in30.2 mm
09:30 PM 34.9°F1.6°C 30.0°F-1.1°C 82% 0.2 mph NW0.3 kmh NW 2.2 mph3.5 kmh 29.67 in1004.7 mb 0.00 in0.0 mm 0.00 in0.0 mm 1.19 in30.2 mm
09:15 PM 35.2°F1.8°C 30.0°F-1.1°C 81% 0.6 mph NNW1.0 kmh NNW 3.1 mph5.0 kmh 29.67 in1004.7 mb 0.00 in0.0 mm 0.00 in0.0 mm 1.19 in30.2 mm
09:00 PM 36.3°F2.4°C 30.8°F-0.7°C 80% 0.2 mph WNW0.3 kmh WNW 2.2 mph3.5 kmh 29.66 in1004.4 mb 0.00 in0.0 mm 0.00 in0.0 mm 1.19 in30.2 mm
08:45 PM 37.6°F3.1°C 30.4°F-0.9°C 75% 1.1 mph NNW1.8 kmh NNW 4.5 mph7.2 kmh 29.66 in1004.4 mb 0.00 in0.0 mm 0.00 in0.0 mm 1.19 in30.2 mm
08:30 PM 39.4°F4.1°C 30.1°F-1.1°C 69% 1.8 mph NE2.9 kmh NE 7.6 mph12.2 kmh 29.65 in1004.1 mb 0.00 in0.0 mm 0.00 in0.0 mm 1.19 in30.2 mm
08:15 PM 39.2°F4.0°C 29.9°F-1.2°C 69% 1.5 mph NNE2.4 kmh NNE 6.0 mph9.7 kmh 29.63 in1003.4 mb 0.00 in0.0 mm 0.00 in0.0 mm 1.19 in30.2 mm
08:00 PM 38.7°F3.7°C 29.0°F-1.7°C 68% 1.5 mph N2.4 kmh N 4.5 mph7.2 kmh 29.63 in1003.4 mb 0.00 in0.0 mm 0.00 in0.0 mm 1.19 in30.2 mm
07:45 PM 41.2°F5.1°C 28.0°F-2.2°C 59% 2.1 mph NE3.4 kmh NE 8.3 mph13.4 kmh 29.62 in1003.0 mb 0.00 in0.0 mm 0.00 in0.0 mm 1.19 in30.2 mm
07:30 PM 41.2°F5.1°C 29.2°F-1.6°C 62% 2.5 mph N4.0 kmh N 6.9 mph11.1 kmh 29.61 in1002.7 mb 0.00 in0.0 mm 0.00 in0.0 mm 1.19 in30.2 mm
07:15 PM 41.4°F5.2°C 30.9°F-0.6°C 66% 3.9 mph W6.3 kmh W 10.7 mph17.2 kmh 29.61 in1002.7 mb 0.01 in0.3 mm 0.00 in0.0 mm 1.19 in30.2 mm
07:00 PM 41.4°F5.2°C 31.2°F-0.4°C 67% 1.2 mph NW1.9 kmh NW 5.4 mph8.7 kmh 29.62 in1003.0 mb 0.01 in0.3 mm 0.00 in0.0 mm 1.19 in30.2 mm
06:45 PM 42.1°F5.6°C 30.8°F-0.7°C 64% 5.0 mph NW8.0 kmh NW 13.0 mph20.9 kmh 29.62 in1003.0 mb 0.01 in0.3 mm 0.00 in0.0 mm 1.19 in30.2 mm
06:30 PM 42.3°F5.7°C 31.0°F-0.6°C 64% 7.1 mph NW11.4 kmh NW 20.6 mph33.2 kmh 29.61 in1002.7 mb 0.01 in0.3 mm 0.04 in1.0 mm 1.19 in30.2 mm
06:15 PM 41.7°F5.4°C 32.0°F0.0°C 68% 1.8 mph N2.9 kmh N 8.3 mph13.4 kmh 29.62 in1003.0 mb 0.00 in0.0 mm 0.00 in0.0 mm 1.18 in30.0 mm
06:00 PM 42.4°F5.8°C 32.3°F0.2°C 67% 1.2 mph SSE1.9 kmh SSE 8.3 mph13.4 kmh 29.61 in1002.7 mb 0.00 in0.0 mm 0.00 in0.0 mm 1.18 in30.0 mm
05:45 PM 42.8°F6.0°C 31.5°F-0.3°C 64% 2.2 mph NNW3.5 kmh NNW 7.6 mph12.2 kmh 29.63 in1003.4 mb 0.00 in0.0 mm 0.00 in0.0 mm 1.18 in30.0 mm
05:30 PM 42.8°F6.0°C 32.6°F0.3°C 67% 1.7 mph N2.7 kmh N 9.2 mph14.8 kmh 29.63 in1003.4 mb 0.00 in0.0 mm 0.00 in0.0 mm 1.18 in30.0 mm
05:15 PM 42.6°F5.9°C 32.8°F0.4°C 68% 2.9 mph NW4.7 kmh NW 7.6 mph12.2 kmh 29.62 in1003.0 mb 0.00 in0.0 mm 0.00 in0.0 mm 1.18 in30.0 mm
05:00 PM 42.6°F5.9°C 33.5°F0.8°C 70% 4.2 mph NNE6.8 kmh NNE 11.4 mph18.3 kmh 29.62 in1003.0 mb 0.00 in0.0 mm 0.00 in0.0 mm 1.18 in30.0 mm
04:45 PM 42.3°F5.7°C 34.6°F1.4°C 74% 4.9 mph NNW7.9 kmh NNW 10.7 mph17.2 kmh 29.61 in1002.7 mb 0.01 in0.3 mm 0.00 in0.0 mm 1.18 in30.0 mm
04:30 PM 42.8°F6.0°C 36.1°F2.3°C 77% 2.2 mph N3.5 kmh N 6.0 mph9.7 kmh 29.62 in1003.0 mb 0.04 in1.0 mm 0.00 in0.0 mm 1.18 in30.0 mm
04:15 PM 43.2°F6.2°C 35.8°F2.1°C 75% 4.2 mph N6.8 kmh N 20.6 mph33.2 kmh 29.61 in1002.7 mb 0.05 in1.3 mm 0.00 in0.0 mm 1.18 in30.0 mm
04:00 PM 42.8°F6.0°C 38.0°F3.3°C 83% 3.8 mph NNE6.1 kmh NNE 9.8 mph15.8 kmh 29.62 in1003.0 mb 0.08 in2.0 mm 0.00 in0.0 mm 1.18 in30.0 mm
03:45 PM 42.1°F5.6°C 38.2°F3.4°C 86% 2.3 mph ENE3.7 kmh ENE 8.3 mph13.4 kmh 29.60 in1002.4 mb 0.09 in2.3 mm 0.00 in0.0 mm 1.17 in29.7 mm
03:30 PM 41.9°F5.5°C 38.9°F3.8°C 89% 3.0 mph NNW4.8 kmh NNW 14.5 mph23.3 kmh 29.59 in1002.0 mb 0.09 in2.3 mm 0.00 in0.0 mm 1.15 in29.2 mm
03:15 PM 41.4°F5.2°C 39.2°F4.0°C 92% 1.6 mph NNE2.6 kmh NNE 8.3 mph13.4 kmh 29.60 in1002.4 mb 0.11 in2.8 mm 0.08 in2.0 mm 1.13 in28.7 mm
03:00 PM 41.0°F5.0°C 38.9°F3.8°C 92% 2.0 mph E3.2 kmh E 8.3 mph13.4 kmh 29.59 in1002.0 mb 0.09 in2.3 mm 0.00 in0.0 mm 1.10 in27.9 mm
02:45 PM 40.6°F4.8°C 38.5°F3.6°C 92% 2.3 mph NE3.7 kmh NE 8.3 mph13.4 kmh 29.59 in1002.0 mb 0.12 in3.0 mm 0.00 in0.0 mm 1.07 in27.2 mm
02:30 PM 40.5°F4.7°C 38.3°F3.5°C 92% 3.8 mph E6.1 kmh E 12.1 mph19.5 kmh 29.59 in1002.0 mb 0.13 in3.3 mm 0.00 in0.0 mm 1.05 in26.7 mm
02:15 PM 40.3°F4.6°C 37.9°F3.3°C 91% 2.0 mph ENE3.2 kmh ENE 5.4 mph8.7 kmh 29.59 in1002.0 mb 0.15 in3.8 mm 0.00 in0.0 mm 1.03 in26.2 mm
02:00 PM 39.7°F4.3°C 37.6°F3.1°C 92% 2.2 mph NE3.5 kmh NE 7.6 mph12.2 kmh 29.59 in1002.0 mb 0.17 in4.3 mm 0.03 in0.8 mm 1.00 in25.4 mm
01:45 PM 39.4°F4.1°C 37.0°F2.8°C 91% 2.4 mph ENE3.9 kmh ENE 9.8 mph15.8 kmh 29.60 in1002.4 mb 0.15 in3.8 mm 0.00 in0.0 mm 0.96 in24.4 mm
01:30 PM 38.8°F3.8°C 36.7°F2.6°C 92% 1.7 mph N2.7 kmh N 5.4 mph8.7 kmh 29.59 in1002.0 mb 0.17 in4.3 mm 0.00 in0.0 mm 0.92 in23.4 mm
01:15 PM 38.1°F3.4°C 35.7°F2.1°C 91% 2.2 mph E3.5 kmh E 9.2 mph14.8 kmh 29.60 in1002.4 mb 0.17 in4.3 mm 0.00 in0.0 mm 0.87 in22.1 mm
01:00 PM 38.1°F3.4°C 36.0°F2.2°C 92% 2.5 mph NE4.0 kmh NE 7.6 mph12.2 kmh 29.60 in1002.4 mb 0.18 in4.6 mm 0.00 in0.0 mm 0.84 in21.3 mm
12:45 PM 37.8°F3.2°C 35.1°F1.7°C 90% 1.6 mph NE2.6 kmh NE 5.4 mph8.7 kmh 29.60 in1002.4 mb 0.19 in4.8 mm 0.04 in1.0 mm 0.80 in20.3 mm
12:30 PM 37.9°F3.3°C 35.3°F1.8°C 90% 1.2 mph E1.9 kmh E 3.8 mph6.1 kmh 29.61 in1002.7 mb 0.18 in4.6 mm 0.00 in0.0 mm 0.76 in19.3 mm
12:15 PM 37.9°F3.3°C 35.0°F1.7°C 89% 0.8 mph ENE1.3 kmh ENE 5.4 mph8.7 kmh 29.61 in1002.7 mb 0.18 in4.6 mm 0.00 in0.0 mm 0.71 in18.0 mm
11:45 AM 38.8°F3.8°C 35.9°F2.2°C 89% 0.6 mph N1.0 kmh N 3.8 mph6.1 kmh 29.60 in1002.4 mb 0.19 in4.8 mm 0.00 in0.0 mm 0.61 in15.5 mm
11:30 AM 39.0°F3.9°C 36.1°F2.3°C 89% 1.7 mph NE2.7 kmh NE 6.0 mph9.7 kmh 29.60 in1002.4 mb 0.21 in5.3 mm 0.00 in0.0 mm 0.58 in14.7 mm
11:15 AM 39.6°F4.2°C 35.7°F2.1°C 86% 2.7 mph NNE4.3 kmh NNE 9.8 mph15.8 kmh 29.60 in1002.4 mb 0.21 in5.3 mm 0.08 in2.0 mm 0.53 in13.5 mm
11:00 AM 40.1°F4.5°C 36.8°F2.7°C 88% 2.2 mph N3.5 kmh N 7.6 mph12.2 kmh 29.59 in1002.0 mb 0.19 in4.8 mm 0.05 in1.3 mm 0.48 in12.2 mm
10:45 AM 41.0°F5.0°C 38.0°F3.3°C 89% 1.9 mph N3.1 kmh N 4.5 mph7.2 kmh 29.59 in1002.0 mb 0.15 in3.8 mm 0.12 in3.0 mm 0.43 in10.9 mm
10:30 AM 41.7°F5.4°C 38.4°F3.6°C 88% 3.4 mph NNW5.5 kmh NNW 6.0 mph9.7 kmh 29.58 in1001.7 mb 0.12 in3.0 mm 0.04 in1.0 mm 0.37 in9.4 mm
10:15 AM 42.4°F5.8°C 39.1°F3.9°C 88% 1.0 mph N1.6 kmh N 4.5 mph7.2 kmh 29.57 in1001.4 mb 0.11 in2.8 mm 0.00 in0.0 mm 0.32 in8.1 mm
10:00 AM 42.6°F5.9°C 39.3°F4.1°C 88% 2.7 mph N4.3 kmh N 9.2 mph14.8 kmh 29.56 in1001.0 mb 0.11 in2.8 mm 0.00 in0.0 mm 0.30 in7.6 mm
09:45 AM 43.0°F6.1°C 39.4°F4.1°C 87% 4.6 mph N7.4 kmh N 9.8 mph15.8 kmh 29.56 in1001.0 mb 0.11 in2.8 mm 0.00 in0.0 mm 0.27 in6.9 mm
09:30 AM 43.0°F6.1°C 40.3°F4.6°C 90% 2.0 mph N3.2 kmh N 5.4 mph8.7 kmh 29.55 in1000.7 mb 0.11 in2.8 mm 0.12 in3.0 mm 0.25 in6.4 mm
09:15 AM 42.8°F6.0°C 40.1°F4.5°C 90% 2.3 mph N3.7 kmh N 9.2 mph14.8 kmh 29.55 in1000.7 mb 0.08 in2.0 mm 0.04 in1.0 mm 0.21 in5.3 mm
09:00 AM 42.8°F6.0°C 40.1°F4.5°C 90% 3.6 mph N5.8 kmh N 10.7 mph17.2 kmh 29.55 in1000.7 mb 0.07 in1.8 mm 0.03 in0.8 mm 0.19 in4.8 mm
08:45 AM 42.8°F6.0°C 39.8°F4.3°C 89% 2.6 mph N4.2 kmh N 7.6 mph12.2 kmh 29.54 in1000.3 mb 0.05 in1.3 mm 0.00 in0.0 mm 0.17 in4.3 mm
08:30 AM 43.0°F6.1°C 39.7°F4.3°C 88% 2.1 mph N3.4 kmh N 9.2 mph14.8 kmh 29.54 in1000.3 mb 0.05 in1.3 mm 0.04 in1.0 mm 0.14 in3.6 mm
08:15 AM 42.8°F6.0°C 39.5°F4.2°C 88% 2.6 mph NNE4.2 kmh NNE 5.4 mph8.7 kmh 29.54 in1000.3 mb 0.04 in1.0 mm 0.00 in0.0 mm 0.13 in3.3 mm
08:00 AM 42.8°F6.0°C 39.2°F4.0°C 87% 2.0 mph N3.2 kmh N 6.9 mph11.1 kmh 29.54 in1000.3 mb 0.04 in1.0 mm 0.03 in0.8 mm 0.12 in3.0 mm
07:45 AM 43.2°F6.2°C 39.0°F3.9°C 85% 2.0 mph NNE3.2 kmh NNE 6.0 mph9.7 kmh 29.54 in1000.3 mb 0.02 in0.5 mm 0.04 in1.0 mm 0.11 in2.8 mm
07:30 AM 43.3°F6.3°C 38.8°F3.8°C 84% 2.2 mph NE3.5 kmh NE 6.0 mph9.7 kmh 29.53 in1000.0 mb 0.01 in0.3 mm 0.00 in0.0 mm 0.09 in2.3 mm
07:15 AM 43.3°F6.3°C 38.5°F3.6°C 83% 3.2 mph N5.1 kmh N 7.6 mph12.2 kmh 29.53 in1000.0 mb 0.01 in0.3 mm 0.04 in1.0 mm 0.09 in2.3 mm
07:00 AM 43.3°F6.3°C 38.2°F3.4°C 82% 4.2 mph N6.8 kmh N 12.1 mph19.5 kmh 29.53 in1000.0 mb 0.00 in0.0 mm 0.00 in0.0 mm 0.08 in2.0 mm
06:45 AM 43.5°F6.4°C 38.1°F3.4°C 81% 5.1 mph ENE8.2 kmh ENE 15.9 mph25.6 kmh 29.52 in999.7 mb 0.00 in0.0 mm 0.00 in0.0 mm 0.08 in2.0 mm
06:30 AM 43.9°F6.6°C 37.8°F3.2°C 79% 6.9 mph NE11.1 kmh NE 23.5 mph37.8 kmh 29.52 in999.7 mb 0.00 in0.0 mm 0.00 in0.0 mm 0.08 in2.0 mm
06:15 AM 43.9°F6.6°C 36.8°F2.7°C 76% 4.6 mph N7.4 kmh N 14.5 mph23.3 kmh 29.52 in999.7 mb 0.00 in0.0 mm 0.00 in0.0 mm 0.08 in2.0 mm
06:00 AM 43.9°F6.6°C 36.8°F2.7°C 76% 4.9 mph N7.9 kmh N 15.9 mph25.6 kmh 29.51 in999.3 mb 0.00 in0.0 mm 0.00 in0.0 mm 0.08 in2.0 mm
05:45 AM 43.7°F6.5°C 37.6°F3.1°C 79% 5.2 mph N8.4 kmh N 19.0 mph30.6 kmh 29.50 in999.0 mb 0.00 in0.0 mm 0.00 in0.0 mm 0.08 in2.0 mm
05:30 AM 43.5°F6.4°C 37.8°F3.2°C 80% 5.0 mph N8.0 kmh N 11.4 mph18.3 kmh 29.50 in999.0 mb 0.00 in0.0 mm 0.00 in0.0 mm 0.08 in2.0 mm
05:15 AM 43.3°F6.3°C 37.9°F3.3°C 81% 5.7 mph N9.2 kmh N 11.4 mph18.3 kmh 29.50 in999.0 mb 0.00 in0.0 mm 0.00 in0.0 mm 0.08 in2.0 mm
05:00 AM 43.2°F6.2°C 37.7°F3.2°C 81% 4.0 mph N6.4 kmh N 10.7 mph17.2 kmh 29.50 in999.0 mb 0.00 in0.0 mm 0.00 in0.0 mm 0.08 in2.0 mm
04:45 AM 43.5°F6.4°C 37.1°F2.8°C 78% 4.4 mph N7.1 kmh N 14.5 mph23.3 kmh 29.50 in999.0 mb 0.00 in0.0 mm 0.00 in0.0 mm 0.08 in2.0 mm
04:30 AM 43.5°F6.4°C 37.4°F3.0°C 79% 5.1 mph N8.2 kmh N 14.5 mph23.3 kmh 29.49 in998.6 mb 0.00 in0.0 mm 0.00 in0.0 mm 0.08 in2.0 mm
04:15 AM 43.7°F6.5°C 37.3°F2.9°C 78% 5.8 mph N9.3 kmh N 13.6 mph21.9 kmh 29.50 in999.0 mb 0.00 in0.0 mm 0.00 in0.0 mm 0.08 in2.0 mm
04:00 AM 43.7°F6.5°C 38.3°F3.5°C 81% 5.2 mph N8.4 kmh N 12.1 mph19.5 kmh 29.50 in999.0 mb 0.01 in0.3 mm 0.00 in0.0 mm 0.08 in2.0 mm
03:45 AM 43.5°F6.4°C 39.0°F3.9°C 84% 4.3 mph N6.9 kmh N 11.4 mph18.3 kmh 29.48 in998.3 mb 0.01 in0.3 mm 0.00 in0.0 mm 0.08 in2.0 mm
03:30 AM 43.2°F6.2°C 39.6°F4.2°C 87% 3.7 mph N6.0 kmh N 13.0 mph20.9 kmh 29.49 in998.6 mb 0.01 in0.3 mm 0.00 in0.0 mm 0.08 in2.0 mm
03:15 AM 42.6°F5.9°C 39.9°F4.4°C 90% 1.3 mph NE2.1 kmh NE 6.0 mph9.7 kmh 29.48 in998.3 mb 0.01 in0.3 mm 0.04 in1.0 mm 0.08 in2.0 mm